sensor_id;sensor_type;location;lat;lon;timestamp;P1;durP1;ratioP1;P2;durP2;ratioP2
35110;SDS011;21290;50.158;8.658;2023-06-01T00:02:13;9.73;;;2.47;;
35110;SDS011;21290;50.158;8.658;2023-06-01T00:04:39;5.28;;;2.20;;
35110;SDS011;21290;50.158;8.658;2023-06-01T00:07:07;4.22;;;2.53;;
35110;SDS011;21290;50.158;8.658;2023-06-01T00:09:35;4.07;;;2.20;;
35110;SDS011;21290;50.158;8.658;2023-06-01T00:12:02;5.15;;;2.50;;
35110;SDS011;21290;50.158;8.658;2023-06-01T00:14:29;6.80;;;2.78;;
35110;SDS011;21290;50.158;8.658;2023-06-01T00:16:56;5.18;;;2.90;;
35110;SDS011;21290;50.158;8.658;2023-06-01T00:19:23;6.40;;;2.22;;
35110;SDS011;21290;50.158;8.658;2023-06-01T00:21:52;7.65;;;2.30;;
35110;SDS011;21290;50.158;8.658;2023-06-01T00:24:20;3.42;;;2.08;;
35110;SDS011;21290;50.158;8.658;2023-06-01T00:26:54;5.57;;;2.40;;
35110;SDS011;21290;50.158;8.658;2023-06-01T00:29:20;4.95;;;2.60;;
35110;SDS011;21290;50.158;8.658;2023-06-01T00:31:48;8.25;;;2.90;;
35110;SDS011;21290;50.158;8.658;2023-06-01T00:34:15;4.72;;;2.63;;
35110;SDS011;21290;50.158;8.658;2023-06-01T00:36:42;6.70;;;2.60;;
35110;SDS011;21290;50.158;8.658;2023-06-01T00:39:08;9.13;;;2.35;;
35110;SDS011;21290;50.158;8.658;2023-06-01T00:41:35;2.83;;;2.30;;
35110;SDS011;21290;50.158;8.658;2023-06-01T00:44:02;4.97;;;2.50;;
35110;SDS011;21290;50.158;8.658;2023-06-01T00:46:29;4.03;;;2.35;;
35110;SDS011;21290;50.158;8.658;2023-06-01T00:48:57;5.45;;;2.60;;
35110;SDS011;21290;50.158;8.658;2023-06-01T00:51:24;4.72;;;2.40;;
35110;SDS011;21290;50.158;8.658;2023-06-01T00:53:51;7.10;;;2.78;;
35110;SDS011;21290;50.158;8.658;2023-06-01T00:56:18;6.00;;;3.33;;
35110;SDS011;21290;50.158;8.658;2023-06-01T00:58:45;9.50;;;3.72;;
35110;SDS011;21290;50.158;8.658;2023-06-01T01:01:12;6.95;;;2.88;;
35110;SDS011;21290;50.158;8.658;2023-06-01T01:03:46;4.95;;;2.40;;
35110;SDS011;21290;50.158;8.658;2023-06-01T01:06:16;5.10;;;2.80;;
35110;SDS011;21290;50.158;8.658;2023-06-01T01:14:50;4.50;;;2.67;;
35110;SDS011;21290;50.158;8.658;2023-06-01T01:17:24;5.65;;;2.55;;
35110;SDS011;21290;50.158;8.658;2023-06-01T01:20:26;6.78;;;2.75;;
35110;SDS011;21290;50.158;8.658;2023-06-01T01:28:25;7.38;;;2.38;;
35110;SDS011;21290;50.158;8.658;2023-06-01T01:30:59;5.75;;;2.72;;
35110;SDS011;21290;50.158;8.658;2023-06-01T01:33:29;6.32;;;2.70;;
35110;SDS011;21290;50.158;8.658;2023-06-01T01:35:59;5.20;;;2.28;;
35110;SDS011;21290;50.158;8.658;2023-06-01T01:38:27;5.22;;;2.50;;
35110;SDS011;21290;50.158;8.658;2023-06-01T01:40:53;5.82;;;2.90;;
35110;SDS011;21290;50.158;8.658;2023-06-01T01:43:20;7.07;;;2.17;;
35110;SDS011;21290;50.158;8.658;2023-06-01T01:45:51;5.38;;;2.78;;
35110;SDS011;21290;50.158;8.658;2023-06-01T01:48:48;7.18;;;2.53;;
35110;SDS011;21290;50.158;8.658;2023-06-01T01:51:21;7.57;;;2.42;;
35110;SDS011;21290;50.158;8.658;2023-06-01T01:53:52;7.93;;;2.75;;
35110;SDS011;21290;50.158;8.658;2023-06-01T01:56:22;5.35;;;2.65;;
35110;SDS011;21290;50.158;8.658;2023-06-01T01:58:49;5.85;;;2.33;;
35110;SDS011;21290;50.158;8.658;2023-06-01T02:01:16;6.75;;;2.70;;
35110;SDS011;21290;50.158;8.658;2023-06-01T02:03:44;8.68;;;2.80;;
35110;SDS011;21290;50.158;8.658;2023-06-01T02:06:11;5.72;;;2.47;;
35110;SDS011;21290;50.158;8.658;2023-06-01T02:08:37;7.70;;;2.58;;
35110;SDS011;21290;50.158;8.658;2023-06-01T02:11:04;6.28;;;2.90;;
35110;SDS011;21290;50.158;8.658;2023-06-01T02:13:31;5.10;;;2.63;;
35110;SDS011;21290;50.158;8.658;2023-06-01T02:15:57;10.07;;;2.20;;
35110;SDS011;21290;50.158;8.658;2023-06-01T02:18:24;5.43;;;2.58;;
35110;SDS011;21290;50.158;8.658;2023-06-01T02:20:51;4.07;;;2.47;;
35110;SDS011;21290;50.158;8.658;2023-06-01T02:23:18;5.30;;;2.40;;
35110;SDS011;21290;50.158;8.658;2023-06-01T02:25:44;6.13;;;2.72;;
35110;SDS011;21290;50.158;8.658;2023-06-01T02:28:11;4.65;;;2.25;;
35110;SDS011;21290;50.158;8.658;2023-06-01T02:30:38;11.13;;;2.70;;
35110;SDS011;21290;50.158;8.658;2023-06-01T02:33:04;5.10;;;2.50;;
35110;SDS011;21290;50.158;8.658;2023-06-01T02:35:31;5.32;;;2.97;;
35110;SDS011;21290;50.158;8.658;2023-06-01T02:37:58;4.05;;;2.30;;
35110;SDS011;21290;50.158;8.658;2023-06-01T02:40:24;10.98;;;2.70;;
35110;SDS011;21290;50.158;8.658;2023-06-01T02:42:51;4.70;;;2.47;;
35110;SDS011;21290;50.158;8.658;2023-06-01T02:45:18;5.85;;;2.70;;
35110;SDS011;21290;50.158;8.658;2023-06-01T02:47:45;8.23;;;3.13;;
35110;SDS011;21290;50.158;8.658;2023-06-01T02:50:11;5.20;;;2.70;;
35110;SDS011;21290;50.158;8.658;2023-06-01T02:52:38;3.97;;;2.30;;
35110;SDS011;21290;50.158;8.658;2023-06-01T02:55:05;9.90;;;2.58;;
35110;SDS011;21290;50.158;8.658;2023-06-01T02:57:32;6.18;;;2.72;;
35110;SDS011;21290;50.158;8.658;2023-06-01T02:59:58;4.97;;;2.80;;
35110;SDS011;21290;50.158;8.658;2023-06-01T03:02:25;4.22;;;2.25;;
35110;SDS011;21290;50.158;8.658;2023-06-01T03:04:52;6.75;;;3.13;;
35110;SDS011;21290;50.158;8.658;2023-06-01T03:07:19;8.90;;;2.92;;
35110;SDS011;21290;50.158;8.658;2023-06-01T03:09:46;4.22;;;2.33;;
35110;SDS011;21290;50.158;8.658;2023-06-01T03:12:13;5.18;;;2.63;;
35110;SDS011;21290;50.158;8.658;2023-06-01T03:14:39;6.32;;;2.65;;
35110;SDS011;21290;50.158;8.658;2023-06-01T03:17:06;4.30;;;2.25;;
35110;SDS011;21290;50.158;8.658;2023-06-01T03:19:32;7.20;;;3.65;;
35110;SDS011;21290;50.158;8.658;2023-06-01T03:21:59;6.10;;;2.70;;
35110;SDS011;21290;50.158;8.658;2023-06-01T03:24:26;10.40;;;2.80;;
35110;SDS011;21290;50.158;8.658;2023-06-01T03:26:54;6.97;;;2.40;;
35110;SDS011;21290;50.158;8.658;2023-06-01T03:29:21;4.18;;;2.40;;
35110;SDS011;21290;50.158;8.658;2023-06-01T03:31:47;4.75;;;2.60;;
35110;SDS011;21290;50.158;8.658;2023-06-01T03:34:14;10.57;;;2.83;;
35110;SDS011;21290;50.158;8.658;2023-06-01T03:36:41;4.95;;;2.53;;
35110;SDS011;21290;50.158;8.658;2023-06-01T03:39:08;5.70;;;2.50;;
35110;SDS011;21290;50.158;8.658;2023-06-01T03:41:35;6.20;;;2.83;;
35110;SDS011;21290;50.158;8.658;2023-06-01T03:44:01;7.47;;;2.75;;
35110;SDS011;21290;50.158;8.658;2023-06-01T03:46:28;7.00;;;2.80;;
35110;SDS011;21290;50.158;8.658;2023-06-01T03:48:55;6.55;;;2.45;;
35110;SDS011;21290;50.158;8.658;2023-06-01T03:51:21;6.10;;;2.60;;
35110;SDS011;21290;50.158;8.658;2023-06-01T03:53:48;5.55;;;2.50;;
35110;SDS011;21290;50.158;8.658;2023-06-01T03:56:15;6.10;;;2.78;;
35110;SDS011;21290;50.158;8.658;2023-06-01T03:58:42;5.63;;;2.55;;
35110;SDS011;21290;50.158;8.658;2023-06-01T04:01:08;5.32;;;2.40;;
35110;SDS011;21290;50.158;8.658;2023-06-01T04:06:05;5.88;;;2.67;;
35110;SDS011;21290;50.158;8.658;2023-06-01T04:08:38;4.82;;;2.50;;
35110;SDS011;21290;50.158;8.658;2023-06-01T04:11:14;4.25;;;2.67;;
35110;SDS011;21290;50.158;8.658;2023-06-01T04:13:42;7.57;;;2.58;;
35110;SDS011;21290;50.158;8.658;2023-06-01T04:16:10;6.55;;;2.20;;
35110;SDS011;21290;50.158;8.658;2023-06-01T04:18:36;5.10;;;2.40;;
35110;SDS011;21290;50.158;8.658;2023-06-01T04:21:03;9.68;;;2.83;;
35110;SDS011;21290;50.158;8.658;2023-06-01T04:23:30;10.25;;;2.50;;
35110;SDS011;21290;50.158;8.658;2023-06-01T04:25:56;5.40;;;3.00;;
35110;SDS011;21290;50.158;8.658;2023-06-01T04:28:25;10.25;;;3.08;;
35110;SDS011;21290;50.158;8.658;2023-06-01T04:30:53;6.85;;;2.70;;
35110;SDS011;21290;50.158;8.658;2023-06-01T04:33:20;5.15;;;2.85;;
35110;SDS011;21290;50.158;8.658;2023-06-01T04:35:48;5.85;;;2.88;;
35110;SDS011;21290;50.158;8.658;2023-06-01T04:38:15;8.68;;;3.40;;
35110;SDS011;21290;50.158;8.658;2023-06-01T04:40:43;10.43;;;2.78;;
35110;SDS011;21290;50.158;8.658;2023-06-01T04:43:11;20.67;;;3.50;;
35110;SDS011;21290;50.158;8.658;2023-06-01T04:45:38;5.30;;;2.88;;
35110;SDS011;21290;50.158;8.658;2023-06-01T04:48:05;7.20;;;3.08;;
35110;SDS011;21290;50.158;8.658;2023-06-01T04:50:35;5.63;;;2.60;;
35110;SDS011;21290;50.158;8.658;2023-06-01T04:53:01;14.88;;;3.03;;
35110;SDS011;21290;50.158;8.658;2023-06-01T04:55:28;8.32;;;2.85;;
35110;SDS011;21290;50.158;8.658;2023-06-01T04:57:57;6.78;;;2.80;;
35110;SDS011;21290;50.158;8.658;2023-06-01T05:00:24;8.57;;;3.28;;
35110;SDS011;21290;50.158;8.658;2023-06-01T05:02:51;7.18;;;3.10;;
35110;SDS011;21290;50.158;8.658;2023-06-01T05:05:18;13.88;;;3.78;;
35110;SDS011;21290;50.158;8.658;2023-06-01T05:07:44;11.07;;;3.78;;
35110;SDS011;21290;50.158;8.658;2023-06-01T05:10:12;8.18;;;2.70;;
35110;SDS011;21290;50.158;8.658;2023-06-01T05:12:39;11.48;;;2.45;;
35110;SDS011;21290;50.158;8.658;2023-06-01T05:15:06;7.50;;;3.40;;
35110;SDS011;21290;50.158;8.658;2023-06-01T05:17:34;5.90;;;2.75;;
35110;SDS011;21290;50.158;8.658;2023-06-01T05:20:01;4.25;;;2.50;;
35110;SDS011;21290;50.158;8.658;2023-06-01T05:22:28;9.80;;;3.08;;
35110;SDS011;21290;50.158;8.658;2023-06-01T05:24:54;8.55;;;2.40;;
35110;SDS011;21290;50.158;8.658;2023-06-01T05:27:21;6.00;;;2.88;;
35110;SDS011;21290;50.158;8.658;2023-06-01T05:29:48;7.93;;;2.22;;
35110;SDS011;21290;50.158;8.658;2023-06-01T05:32:14;4.63;;;2.65;;
35110;SDS011;21290;50.158;8.658;2023-06-01T05:34:41;10.68;;;2.70;;
35110;SDS011;21290;50.158;8.658;2023-06-01T05:37:08;10.43;;;2.72;;
35110;SDS011;21290;50.158;8.658;2023-06-01T05:39:34;13.07;;;2.60;;
35110;SDS011;21290;50.158;8.658;2023-06-01T05:42:01;12.70;;;2.70;;
35110;SDS011;21290;50.158;8.658;2023-06-01T05:44:28;6.80;;;2.90;;
35110;SDS011;21290;50.158;8.658;2023-06-01T05:46:54;11.38;;;3.15;;
35110;SDS011;21290;50.158;8.658;2023-06-01T05:49:21;9.45;;;2.50;;
35110;SDS011;21290;50.158;8.658;2023-06-01T05:51:48;11.93;;;2.90;;
35110;SDS011;21290;50.158;8.658;2023-06-01T05:54:15;9.50;;;2.70;;
35110;SDS011;21290;50.158;8.658;2023-06-01T05:56:41;10.00;;;2.50;;
35110;SDS011;21290;50.158;8.658;2023-06-01T05:59:08;11.13;;;2.80;;
35110;SDS011;21290;50.158;8.658;2023-06-01T06:01:35;8.20;;;2.85;;
35110;SDS011;21290;50.158;8.658;2023-06-01T06:04:02;4.47;;;2.40;;
35110;SDS011;21290;50.158;8.658;2023-06-01T06:06:29;6.75;;;2.40;;
35110;SDS011;21290;50.158;8.658;2023-06-01T06:08:58;5.00;;;2.20;;
35110;SDS011;21290;50.158;8.658;2023-06-01T06:11:24;6.80;;;2.15;;
35110;SDS011;21290;50.158;8.658;2023-06-01T06:13:52;6.07;;;2.03;;
35110;SDS011;21290;50.158;8.658;2023-06-01T06:16:18;7.28;;;2.30;;
35110;SDS011;21290;50.158;8.658;2023-06-01T06:18:45;9.98;;;2.20;;
35110;SDS011;21290;50.158;8.658;2023-06-01T06:21:12;5.70;;;2.63;;
35110;SDS011;21290;50.158;8.658;2023-06-01T06:23:40;5.78;;;2.17;;
35110;SDS011;21290;50.158;8.658;2023-06-01T06:26:08;7.60;;;2.00;;
35110;SDS011;21290;50.158;8.658;2023-06-01T06:28:35;9.82;;;2.30;;
35110;SDS011;21290;50.158;8.658;2023-06-01T06:31:02;3.92;;;2.50;;
35110;SDS011;21290;50.158;8.658;2023-06-01T06:33:29;9.52;;;2.72;;
35110;SDS011;21290;50.158;8.658;2023-06-01T06:35:56;7.07;;;2.10;;
35110;SDS011;21290;50.158;8.658;2023-06-01T06:38:23;7.03;;;2.40;;
35110;SDS011;21290;50.158;8.658;2023-06-01T06:40:49;4.88;;;2.35;;
35110;SDS011;21290;50.158;8.658;2023-06-01T06:43:17;5.05;;;2.47;;
35110;SDS011;21290;50.158;8.658;2023-06-01T06:45:44;6.25;;;2.33;;
35110;SDS011;21290;50.158;8.658;2023-06-01T06:48:10;7.03;;;2.30;;
35110;SDS011;21290;50.158;8.658;2023-06-01T06:50:37;18.25;;;2.42;;
35110;SDS011;21290;50.158;8.658;2023-06-01T06:53:04;6.28;;;2.40;;
35110;SDS011;21290;50.158;8.658;2023-06-01T06:55:31;8.30;;;2.60;;
35110;SDS011;21290;50.158;8.658;2023-06-01T06:57:58;5.70;;;2.30;;
35110;SDS011;21290;50.158;8.658;2023-06-01T07:00:24;6.63;;;2.97;;
35110;SDS011;21290;50.158;8.658;2023-06-01T07:02:51;7.20;;;2.47;;
35110;SDS011;21290;50.158;8.658;2023-06-01T07:05:18;8.63;;;2.42;;
35110;SDS011;21290;50.158;8.658;2023-06-01T07:07:45;5.53;;;2.55;;
35110;SDS011;21290;50.158;8.658;2023-06-01T07:10:12;5.13;;;2.38;;
35110;SDS011;21290;50.158;8.658;2023-06-01T07:12:39;8.43;;;2.30;;
35110;SDS011;21290;50.158;8.658;2023-06-01T07:15:06;6.18;;;2.13;;
35110;SDS011;21290;50.158;8.658;2023-06-01T07:17:33;11.63;;;2.22;;
35110;SDS011;21290;50.158;8.658;2023-06-01T07:20:01;7.38;;;1.98;;
35110;SDS011;21290;50.158;8.658;2023-06-01T07:22:32;9.40;;;2.40;;
35110;SDS011;21290;50.158;8.658;2023-06-01T07:25:00;4.57;;;1.90;;
35110;SDS011;21290;50.158;8.658;2023-06-01T07:27:26;10.00;;;2.42;;
35110;SDS011;21290;50.158;8.658;2023-06-01T07:29:54;7.07;;;2.20;;
35110;SDS011;21290;50.158;8.658;2023-06-01T07:32:22;12.00;;;2.60;;
35110;SDS011;21290;50.158;8.658;2023-06-01T07:34:50;11.07;;;2.00;;
35110;SDS011;21290;50.158;8.658;2023-06-01T07:37:17;8.07;;;2.10;;
35110;SDS011;21290;50.158;8.658;2023-06-01T07:39:48;5.90;;;2.10;;
35110;SDS011;21290;50.158;8.658;2023-06-01T07:42:15;19.20;;;2.30;;
35110;SDS011;21290;50.158;8.658;2023-06-01T07:44:41;5.50;;;2.10;;
35110;SDS011;21290;50.158;8.658;2023-06-01T07:47:08;8.02;;;2.05;;
35110;SDS011;21290;50.158;8.658;2023-06-01T07:49:35;8.45;;;2.75;;
35110;SDS011;21290;50.158;8.658;2023-06-01T07:52:02;4.72;;;1.90;;
35110;SDS011;21290;50.158;8.658;2023-06-01T07:54:30;8.52;;;2.65;;
35110;SDS011;21290;50.158;8.658;2023-06-01T07:56:59;4.25;;;1.98;;
35110;SDS011;21290;50.158;8.658;2023-06-01T07:59:25;7.47;;;2.10;;
35110;SDS011;21290;50.158;8.658;2023-06-01T08:01:54;8.18;;;2.00;;
35110;SDS011;21290;50.158;8.658;2023-06-01T08:04:22;6.20;;;2.08;;
35110;SDS011;21290;50.158;8.658;2023-06-01T08:06:49;8.80;;;2.38;;
35110;SDS011;21290;50.158;8.658;2023-06-01T08:09:19;9.55;;;2.30;;
35110;SDS011;21290;50.158;8.658;2023-06-01T08:14:14;10.25;;;2.33;;
35110;SDS011;21290;50.158;8.658;2023-06-01T08:16:42;6.55;;;2.00;;
35110;SDS011;21290;50.158;8.658;2023-06-01T08:19:09;6.53;;;2.00;;
35110;SDS011;21290;50.158;8.658;2023-06-01T08:21:36;4.72;;;1.90;;
35110;SDS011;21290;50.158;8.658;2023-06-01T08:24:03;4.43;;;1.95;;
35110;SDS011;21290;50.158;8.658;2023-06-01T08:26:29;7.53;;;1.85;;
35110;SDS011;21290;50.158;8.658;2023-06-01T08:28:56;15.25;;;2.50;;
35110;SDS011;21290;50.158;8.658;2023-06-01T08:31:24;7.57;;;3.03;;
35110;SDS011;21290;50.158;8.658;2023-06-01T08:33:51;10.40;;;1.88;;
35110;SDS011;21290;50.158;8.658;2023-06-01T08:36:19;7.53;;;1.63;;
35110;SDS011;21290;50.158;8.658;2023-06-01T08:38:46;7.43;;;1.92;;
35110;SDS011;21290;50.158;8.658;2023-06-01T08:44:07;6.07;;;2.63;;
35110;SDS011;21290;50.158;8.658;2023-06-01T08:46:34;8.88;;;2.55;;
35110;SDS011;21290;50.158;8.658;2023-06-01T08:49:02;13.20;;;2.00;;
35110;SDS011;21290;50.158;8.658;2023-06-01T08:51:32;9.60;;;2.30;;
35110;SDS011;21290;50.158;8.658;2023-06-01T08:54:00;11.43;;;1.80;;
35110;SDS011;21290;50.158;8.658;2023-06-01T08:56:31;7.93;;;1.98;;
35110;SDS011;21290;50.158;8.658;2023-06-01T08:58:57;6.97;;;1.77;;
35110;SDS011;21290;50.158;8.658;2023-06-01T09:01:26;9.18;;;2.00;;
35110;SDS011;21290;50.158;8.658;2023-06-01T09:03:53;3.50;;;1.50;;
35110;SDS011;21290;50.158;8.658;2023-06-01T09:06:20;8.25;;;2.33;;
35110;SDS011;21290;50.158;8.658;2023-06-01T09:08:47;8.52;;;1.83;;
35110;SDS011;21290;50.158;8.658;2023-06-01T09:11:14;11.38;;;2.10;;
35110;SDS011;21290;50.158;8.658;2023-06-01T09:13:41;7.47;;;1.73;;
35110;SDS011;21290;50.158;8.658;2023-06-01T09:16:07;7.32;;;1.95;;
35110;SDS011;21290;50.158;8.658;2023-06-01T09:18:34;7.32;;;1.85;;
35110;SDS011;21290;50.158;8.658;2023-06-01T09:21:11;6.38;;;1.80;;
35110;SDS011;21290;50.158;8.658;2023-06-01T09:23:39;7.05;;;1.63;;
35110;SDS011;21290;50.158;8.658;2023-06-01T09:26:08;11.00;;;2.20;;
35110;SDS011;21290;50.158;8.658;2023-06-01T09:28:52;5.72;;;1.92;;
35110;SDS011;21290;50.158;8.658;2023-06-01T09:34:04;5.53;;;1.50;;
35110;SDS011;21290;50.158;8.658;2023-06-01T09:36:32;9.00;;;1.55;;
35110;SDS011;21290;50.158;8.658;2023-06-01T09:38:59;8.40;;;1.38;;
35110;SDS011;21290;50.158;8.658;2023-06-01T09:41:49;4.50;;;2.05;;
35110;SDS011;21290;50.158;8.658;2023-06-01T09:44:23;9.35;;;1.77;;
35110;SDS011;21290;50.158;8.658;2023-06-01T09:49:28;4.28;;;1.48;;
35110;SDS011;21290;50.158;8.658;2023-06-01T09:54:33;3.08;;;1.00;;
35110;SDS011;21290;50.158;8.658;2023-06-01T09:57:01;5.47;;;1.30;;
35110;SDS011;21290;50.158;8.658;2023-06-01T09:59:46;5.18;;;1.27;;
35110;SDS011;21290;50.158;8.658;2023-06-01T10:02:14;4.45;;;1.20;;
35110;SDS011;21290;50.158;8.658;2023-06-01T10:04:49;3.67;;;1.23;;
35110;SDS011;21290;50.158;8.658;2023-06-01T10:07:17;5.03;;;1.30;;
35110;SDS011;21290;50.158;8.658;2023-06-01T10:09:46;2.10;;;1.05;;
35110;SDS011;21290;50.158;8.658;2023-06-01T10:12:17;4.07;;;1.23;;
35110;SDS011;21290;50.158;8.658;2023-06-01T10:14:43;6.70;;;1.47;;
35110;SDS011;21290;50.158;8.658;2023-06-01T10:17:10;8.68;;;1.50;;
35110;SDS011;21290;50.158;8.658;2023-06-01T10:22:04;3.90;;;1.13;;
35110;SDS011;21290;50.158;8.658;2023-06-01T10:24:34;3.33;;;1.20;;
35110;SDS011;21290;50.158;8.658;2023-06-01T10:29:47;4.20;;;1.45;;
35110;SDS011;21290;50.158;8.658;2023-06-01T10:35:09;2.70;;;1.05;;
35110;SDS011;21290;50.158;8.658;2023-06-01T10:40:41;4.47;;;1.02;;
35110;SDS011;21290;50.158;8.658;2023-06-01T10:46:33;5.13;;;1.30;;
35110;SDS011;21290;50.158;8.658;2023-06-01T10:49:11;4.70;;;1.20;;
35110;SDS011;21290;50.158;8.658;2023-06-01T10:51:38;7.25;;;1.17;;
35110;SDS011;21290;50.158;8.658;2023-06-01T10:57:18;5.47;;;1.25;;
35110;SDS011;21290;50.158;8.658;2023-06-01T11:00:29;7.55;;;1.35;;
35110;SDS011;21290;50.158;8.658;2023-06-01T11:08:01;2.38;;;1.05;;
35110;SDS011;21290;50.158;8.658;2023-06-01T11:13:15;15.15;;;1.60;;
35110;SDS011;21290;50.158;8.658;2023-06-01T11:18:42;6.68;;;1.40;;
35110;SDS011;21290;50.158;8.658;2023-06-01T11:21:16;3.25;;;1.40;;
35110;SDS011;21290;50.158;8.658;2023-06-01T11:23:45;7.63;;;1.70;;
35110;SDS011;21290;50.158;8.658;2023-06-01T11:26:16;15.80;;;2.03;;
35110;SDS011;21290;50.158;8.658;2023-06-01T11:28:44;2.75;;;1.38;;
35110;SDS011;21290;50.158;8.658;2023-06-01T11:31:13;5.38;;;1.42;;
35110;SDS011;21290;50.158;8.658;2023-06-01T11:33:48;6.88;;;1.38;;
35110;SDS011;21290;50.158;8.658;2023-06-01T11:36:20;3.70;;;1.13;;
35110;SDS011;21290;50.158;8.658;2023-06-01T11:38:50;8.55;;;1.30;;
35110;SDS011;21290;50.158;8.658;2023-06-01T11:41:20;7.00;;;1.83;;
35110;SDS011;21290;50.158;8.658;2023-06-01T11:43:55;5.53;;;1.35;;
35110;SDS011;21290;50.158;8.658;2023-06-01T11:46:23;3.95;;;1.30;;
35110;SDS011;21290;50.158;8.658;2023-06-01T11:49:00;3.17;;;1.35;;
35110;SDS011;21290;50.158;8.658;2023-06-01T11:51:36;3.80;;;1.40;;
35110;SDS011;21290;50.158;8.658;2023-06-01T11:54:03;3.25;;;1.05;;
35110;SDS011;21290;50.158;8.658;2023-06-01T11:56:31;4.80;;;1.20;;
35110;SDS011;21290;50.158;8.658;2023-06-01T11:59:03;4.50;;;1.73;;
35110;SDS011;21290;50.158;8.658;2023-06-01T12:01:35;9.43;;;1.60;;
35110;SDS011;21290;50.158;8.658;2023-06-01T12:04:18;3.83;;;1.67;;
35110;SDS011;21290;50.158;8.658;2023-06-01T12:06:50;9.30;;;2.00;;
35110;SDS011;21290;50.158;8.658;2023-06-01T12:09:17;4.93;;;1.73;;
35110;SDS011;21290;50.158;8.658;2023-06-01T12:11:46;3.20;;;1.55;;
35110;SDS011;21290;50.158;8.658;2023-06-01T12:14:14;5.53;;;1.90;;
35110;SDS011;21290;50.158;8.658;2023-06-01T12:16:51;5.03;;;1.90;;
35110;SDS011;21290;50.158;8.658;2023-06-01T12:19:18;3.50;;;1.88;;
35110;SDS011;21290;50.158;8.658;2023-06-01T12:21:51;4.28;;;1.92;;
35110;SDS011;21290;50.158;8.658;2023-06-01T12:24:26;12.27;;;2.60;;
35110;SDS011;21290;50.158;8.658;2023-06-01T12:26:55;12.85;;;2.42;;
35110;SDS011;21290;50.158;8.658;2023-06-01T12:29:36;3.03;;;1.92;;
35110;SDS011;21290;50.158;8.658;2023-06-01T12:32:04;7.22;;;2.30;;
35110;SDS011;21290;50.158;8.658;2023-06-01T12:34:32;5.63;;;2.08;;
35110;SDS011;21290;50.158;8.658;2023-06-01T12:36:59;5.97;;;2.17;;
35110;SDS011;21290;50.158;8.658;2023-06-01T12:39:36;4.18;;;2.10;;
35110;SDS011;21290;50.158;8.658;2023-06-01T12:42:03;6.82;;;1.73;;
35110;SDS011;21290;50.158;8.658;2023-06-01T12:44:32;3.10;;;1.63;;
35110;SDS011;21290;50.158;8.658;2023-06-01T12:46:59;5.80;;;4.05;;
35110;SDS011;21290;50.158;8.658;2023-06-01T12:49:26;4.68;;;2.08;;
35110;SDS011;21290;50.158;8.658;2023-06-01T12:51:54;7.95;;;1.95;;
35110;SDS011;21290;50.158;8.658;2023-06-01T12:54:21;8.25;;;1.92;;
35110;SDS011;21290;50.158;8.658;2023-06-01T12:56:48;8.70;;;2.05;;
35110;SDS011;21290;50.158;8.658;2023-06-01T12:59:15;5.88;;;1.70;;
35110;SDS011;21290;50.158;8.658;2023-06-01T13:01:43;5.22;;;1.90;;
35110;SDS011;21290;50.158;8.658;2023-06-01T13:04:10;3.17;;;2.25;;
35110;SDS011;21290;50.158;8.658;2023-06-01T13:06:37;7.57;;;2.33;;
35110;SDS011;21290;50.158;8.658;2023-06-01T13:09:05;7.78;;;2.03;;
35110;SDS011;21290;50.158;8.658;2023-06-01T13:11:32;6.07;;;1.92;;
35110;SDS011;21290;50.158;8.658;2023-06-01T13:13:59;10.32;;;2.25;;
35110;SDS011;21290;50.158;8.658;2023-06-01T13:16:26;6.30;;;2.00;;
35110;SDS011;21290;50.158;8.658;2023-06-01T13:18:53;4.10;;;1.90;;
35110;SDS011;21290;50.158;8.658;2023-06-01T13:21:20;4.47;;;2.38;;
35110;SDS011;21290;50.158;8.658;2023-06-01T13:23:47;7.88;;;2.40;;
35110;SDS011;21290;50.158;8.658;2023-06-01T13:26:14;6.72;;;2.33;;
35110;SDS011;21290;50.158;8.658;2023-06-01T13:28:41;4.15;;;2.05;;
35110;SDS011;21290;50.158;8.658;2023-06-01T13:31:07;3.83;;;1.90;;
35110;SDS011;21290;50.158;8.658;2023-06-01T13:33:35;6.60;;;2.58;;
35110;SDS011;21290;50.158;8.658;2023-06-01T13:36:02;8.85;;;2.20;;
35110;SDS011;21290;50.158;8.658;2023-06-01T13:38:30;8.50;;;2.05;;
35110;SDS011;21290;50.158;8.658;2023-06-01T13:40:57;5.10;;;1.70;;
35110;SDS011;21290;50.158;8.658;2023-06-01T13:43:24;5.28;;;3.20;;
35110;SDS011;21290;50.158;8.658;2023-06-01T13:45:52;10.25;;;1.95;;
35110;SDS011;21290;50.158;8.658;2023-06-01T13:48:19;3.33;;;1.73;;
35110;SDS011;21290;50.158;8.658;2023-06-01T13:50:46;4.53;;;2.75;;
35110;SDS011;21290;50.158;8.658;2023-06-01T13:53:12;2.75;;;1.88;;
35110;SDS011;21290;50.158;8.658;2023-06-01T13:55:39;2.88;;;1.55;;
35110;SDS011;21290;50.158;8.658;2023-06-01T13:58:06;3.55;;;1.95;;
35110;SDS011;21290;50.158;8.658;2023-06-01T14:00:33;3.75;;;1.90;;
35110;SDS011;21290;50.158;8.658;2023-06-01T14:03:00;5.45;;;1.85;;
35110;SDS011;21290;50.158;8.658;2023-06-01T14:05:27;3.63;;;1.90;;
35110;SDS011;21290;50.158;8.658;2023-06-01T14:08:13;3.55;;;2.03;;
35110;SDS011;21290;50.158;8.658;2023-06-01T14:10:40;6.65;;;1.90;;
35110;SDS011;21290;50.158;8.658;2023-06-01T14:13:07;4.88;;;1.70;;
35110;SDS011;21290;50.158;8.658;2023-06-01T14:15:34;10.52;;;1.83;;
35110;SDS011;21290;50.158;8.658;2023-06-01T14:18:01;7.55;;;1.92;;
35110;SDS011;21290;50.158;8.658;2023-06-01T14:20:28;3.28;;;1.70;;
35110;SDS011;21290;50.158;8.658;2023-06-01T14:22:55;4.10;;;1.80;;
35110;SDS011;21290;50.158;8.658;2023-06-01T14:25:21;6.97;;;1.70;;
35110;SDS011;21290;50.158;8.658;2023-06-01T14:27:48;10.93;;;2.10;;
35110;SDS011;21290;50.158;8.658;2023-06-01T14:30:15;5.60;;;1.73;;
35110;SDS011;21290;50.158;8.658;2023-06-01T14:32:42;5.35;;;2.13;;
35110;SDS011;21290;50.158;8.658;2023-06-01T14:35:08;6.15;;;2.17;;
35110;SDS011;21290;50.158;8.658;2023-06-01T14:37:35;5.97;;;1.92;;
35110;SDS011;21290;50.158;8.658;2023-06-01T14:42:41;4.82;;;1.70;;
35110;SDS011;21290;50.158;8.658;2023-06-01T14:45:07;4.90;;;2.00;;
35110;SDS011;21290;50.158;8.658;2023-06-01T14:47:34;6.40;;;1.90;;
35110;SDS011;21290;50.158;8.658;2023-06-01T14:50:01;3.63;;;2.08;;
35110;SDS011;21290;50.158;8.658;2023-06-01T14:52:28;4.75;;;2.35;;
35110;SDS011;21290;50.158;8.658;2023-06-01T14:54:54;4.93;;;2.17;;
35110;SDS011;21290;50.158;8.658;2023-06-01T14:57:21;7.75;;;2.00;;
35110;SDS011;21290;50.158;8.658;2023-06-01T14:59:48;4.72;;;1.83;;
35110;SDS011;21290;50.158;8.658;2023-06-01T15:02:28;4.68;;;1.85;;
35110;SDS011;21290;50.158;8.658;2023-06-01T15:04:55;3.33;;;1.98;;
35110;SDS011;21290;50.158;8.658;2023-06-01T15:07:22;4.15;;;2.10;;
35110;SDS011;21290;50.158;8.658;2023-06-01T15:09:48;8.02;;;1.77;;
35110;SDS011;21290;50.158;8.658;2023-06-01T15:12:15;2.75;;;1.85;;
35110;SDS011;21290;50.158;8.658;2023-06-01T15:14:42;3.20;;;2.10;;
35110;SDS011;21290;50.158;8.658;2023-06-01T15:17:09;7.28;;;2.33;;
35110;SDS011;21290;50.158;8.658;2023-06-01T15:19:36;5.88;;;1.80;;
35110;SDS011;21290;50.158;8.658;2023-06-01T15:22:03;4.63;;;1.95;;
35110;SDS011;21290;50.158;8.658;2023-06-01T15:24:30;2.78;;;1.85;;
35110;SDS011;21290;50.158;8.658;2023-06-01T15:26:57;4.32;;;2.10;;
35110;SDS011;21290;50.158;8.658;2023-06-01T15:29:23;4.72;;;2.08;;
35110;SDS011;21290;50.158;8.658;2023-06-01T15:31:50;7.35;;;2.45;;
35110;SDS011;21290;50.158;8.658;2023-06-01T15:34:17;6.35;;;2.60;;
35110;SDS011;21290;50.158;8.658;2023-06-01T15:36:45;11.00;;;2.83;;
35110;SDS011;21290;50.158;8.658;2023-06-01T15:39:12;6.90;;;2.30;;
35110;SDS011;21290;50.158;8.658;2023-06-01T15:41:39;8.93;;;2.55;;
35110;SDS011;21290;50.158;8.658;2023-06-01T15:44:06;5.70;;;2.83;;
35110;SDS011;21290;50.158;8.658;2023-06-01T15:46:33;15.40;;;2.63;;
35110;SDS011;21290;50.158;8.658;2023-06-01T15:49:00;5.43;;;3.25;;
35110;SDS011;21290;50.158;8.658;2023-06-01T15:51:26;5.82;;;2.30;;